sensor_id;sensor_type;location;lat;lon;timestamp;P1;durP1;ratioP1;P2;durP2;ratioP2
36233;SDS011;43467;50.890;5.982;2023-03-14T00:00:36;6.75;;;1.85;;
36233;SDS011;43467;50.890;5.982;2023-03-14T00:03:01;8.55;;;1.73;;
36233;SDS011;43467;50.890;5.982;2023-03-14T00:05:27;6.13;;;1.80;;
36233;SDS011;43467;50.890;5.982;2023-03-14T00:07:52;6.07;;;1.52;;
36233;SDS011;43467;50.890;5.982;2023-03-14T00:10:18;4.10;;;1.17;;
36233;SDS011;43467;50.890;5.982;2023-03-14T00:12:44;5.13;;;1.55;;
36233;SDS011;43467;50.890;5.982;2023-03-14T00:15:09;4.00;;;1.50;;
36233;SDS011;43467;50.890;5.982;2023-03-14T00:17:36;7.85;;;1.65;;
36233;SDS011;43467;50.890;5.982;2023-03-14T00:20:03;5.75;;;1.70;;
36233;SDS011;43467;50.890;5.982;2023-03-14T00:22:36;5.57;;;1.60;;
36233;SDS011;43467;50.890;5.982;2023-03-14T00:25:05;10.32;;;1.70;;
36233;SDS011;43467;50.890;5.982;2023-03-14T00:27:32;7.32;;;1.77;;
36233;SDS011;43467;50.890;5.982;2023-03-14T00:29:58;12.52;;;2.22;;
36233;SDS011;43467;50.890;5.982;2023-03-14T00:32:23;7.93;;;1.80;;
36233;SDS011;43467;50.890;5.982;2023-03-14T00:34:49;6.40;;;1.98;;
36233;SDS011;43467;50.890;5.982;2023-03-14T00:37:14;9.20;;;2.20;;
36233;SDS011;43467;50.890;5.982;2023-03-14T00:39:40;6.80;;;2.05;;
36233;SDS011;43467;50.890;5.982;2023-03-14T00:42:06;10.75;;;2.33;;
36233;SDS011;43467;50.890;5.982;2023-03-14T00:44:31;8.45;;;1.70;;
36233;SDS011;43467;50.890;5.982;2023-03-14T00:46:57;8.45;;;2.83;;
36233;SDS011;43467;50.890;5.982;2023-03-14T00:49:22;9.38;;;2.00;;
36233;SDS011;43467;50.890;5.982;2023-03-14T00:51:48;12.80;;;2.53;;
36233;SDS011;43467;50.890;5.982;2023-03-14T00:54:13;10.80;;;2.85;;
36233;SDS011;43467;50.890;5.982;2023-03-14T00:56:39;9.18;;;2.38;;
36233;SDS011;43467;50.890;5.982;2023-03-14T00:59:04;10.68;;;3.05;;
36233;SDS011;43467;50.890;5.982;2023-03-14T01:01:29;14.10;;;2.72;;
36233;SDS011;43467;50.890;5.982;2023-03-14T01:03:55;7.22;;;2.50;;
36233;SDS011;43467;50.890;5.982;2023-03-14T01:06:22;8.57;;;2.72;;
36233;SDS011;43467;50.890;5.982;2023-03-14T01:08:49;11.55;;;2.47;;
36233;SDS011;43467;50.890;5.982;2023-03-14T01:11:19;7.40;;;2.10;;
36233;SDS011;43467;50.890;5.982;2023-03-14T01:16:15;8.52;;;2.25;;
36233;SDS011;43467;50.890;5.982;2023-03-14T01:18:43;9.73;;;2.00;;
36233;SDS011;43467;50.890;5.982;2023-03-14T01:21:17;7.80;;;2.00;;
36233;SDS011;43467;50.890;5.982;2023-03-14T01:23:51;6.78;;;1.83;;
36233;SDS011;43467;50.890;5.982;2023-03-14T01:26:19;9.45;;;2.25;;
36233;SDS011;43467;50.890;5.982;2023-03-14T01:28:47;5.53;;;1.50;;
36233;SDS011;43467;50.890;5.982;2023-03-14T01:31:14;6.63;;;1.88;;
36233;SDS011;43467;50.890;5.982;2023-03-14T01:33:40;4.65;;;1.65;;
36233;SDS011;43467;50.890;5.982;2023-03-14T01:36:07;9.90;;;2.15;;
36233;SDS011;43467;50.890;5.982;2023-03-14T01:38:34;9.98;;;1.90;;
36233;SDS011;43467;50.890;5.982;2023-03-14T01:41:01;7.95;;;2.17;;
36233;SDS011;43467;50.890;5.982;2023-03-14T01:43:27;9.20;;;1.88;;
36233;SDS011;43467;50.890;5.982;2023-03-14T01:51:22;7.50;;;2.22;;
36233;SDS011;43467;50.890;5.982;2023-03-14T01:56:37;10.98;;;2.42;;
36233;SDS011;43467;50.890;5.982;2023-03-14T01:59:05;7.65;;;2.47;;
36233;SDS011;43467;50.890;5.982;2023-03-14T02:01:32;6.38;;;1.88;;
36233;SDS011;43467;50.890;5.982;2023-03-14T02:04:00;7.15;;;1.75;;
36233;SDS011;43467;50.890;5.982;2023-03-14T02:06:42;9.73;;;2.50;;
36233;SDS011;43467;50.890;5.982;2023-03-14T02:11:39;8.52;;;2.00;;
36233;SDS011;43467;50.890;5.982;2023-03-14T02:14:04;7.80;;;2.33;;
36233;SDS011;43467;50.890;5.982;2023-03-14T02:16:30;12.48;;;2.03;;
36233;SDS011;43467;50.890;5.982;2023-03-14T02:18:56;10.05;;;2.45;;
36233;SDS011;43467;50.890;5.982;2023-03-14T02:24:13;7.93;;;2.33;;
36233;SDS011;43467;50.890;5.982;2023-03-14T02:29:31;8.20;;;2.30;;
36233;SDS011;43467;50.890;5.982;2023-03-14T02:32:01;9.18;;;2.00;;
36233;SDS011;43467;50.890;5.982;2023-03-14T02:34:27;6.43;;;1.90;;
36233;SDS011;43467;50.890;5.982;2023-03-14T02:36:53;13.80;;;2.80;;
36233;SDS011;43467;50.890;5.982;2023-03-14T02:39:24;10.20;;;2.40;;
36233;SDS011;43467;50.890;5.982;2023-03-14T02:41:57;11.68;;;3.22;;
36233;SDS011;43467;50.890;5.982;2023-03-14T02:44:22;10.50;;;2.78;;
36233;SDS011;43467;50.890;5.982;2023-03-14T02:46:47;18.02;;;4.38;;
36233;SDS011;43467;50.890;5.982;2023-03-14T02:49:13;9.07;;;2.72;;
36233;SDS011;43467;50.890;5.982;2023-03-14T02:51:39;11.05;;;2.83;;
36233;SDS011;43467;50.890;5.982;2023-03-14T02:54:06;15.75;;;3.20;;
36233;SDS011;43467;50.890;5.982;2023-03-14T02:56:32;12.25;;;2.83;;
36233;SDS011;43467;50.890;5.982;2023-03-14T02:58:57;15.43;;;3.33;;
36233;SDS011;43467;50.890;5.982;2023-03-14T03:01:23;14.15;;;3.65;;
36233;SDS011;43467;50.890;5.982;2023-03-14T03:03:49;16.80;;;3.08;;
36233;SDS011;43467;50.890;5.982;2023-03-14T03:06:14;15.85;;;2.97;;
36233;SDS011;43467;50.890;5.982;2023-03-14T03:08:40;12.48;;;2.85;;
36233;SDS011;43467;50.890;5.982;2023-03-14T03:11:06;14.52;;;3.50;;
36233;SDS011;43467;50.890;5.982;2023-03-14T03:13:31;10.38;;;2.63;;
36233;SDS011;43467;50.890;5.982;2023-03-14T03:15:57;8.25;;;2.38;;
36233;SDS011;43467;50.890;5.982;2023-03-14T03:18:22;7.70;;;2.22;;
36233;SDS011;43467;50.890;5.982;2023-03-14T03:20:48;7.93;;;2.20;;
36233;SDS011;43467;50.890;5.982;2023-03-14T03:23:13;9.55;;;2.67;;
36233;SDS011;43467;50.890;5.982;2023-03-14T03:25:38;6.07;;;2.10;;
36233;SDS011;43467;50.890;5.982;2023-03-14T03:28:04;7.72;;;2.10;;
36233;SDS011;43467;50.890;5.982;2023-03-14T03:30:33;6.50;;;2.10;;
36233;SDS011;43467;50.890;5.982;2023-03-14T03:33:02;6.05;;;1.50;;
36233;SDS011;43467;50.890;5.982;2023-03-14T03:35:28;5.25;;;2.10;;
36233;SDS011;43467;50.890;5.982;2023-03-14T03:37:53;3.80;;;1.42;;
36233;SDS011;43467;50.890;5.982;2023-03-14T03:40:19;8.80;;;1.75;;
36233;SDS011;43467;50.890;5.982;2023-03-14T03:42:44;5.45;;;1.58;;
36233;SDS011;43467;50.890;5.982;2023-03-14T03:45:10;6.22;;;1.85;;
36233;SDS011;43467;50.890;5.982;2023-03-14T03:47:35;6.70;;;1.42;;
36233;SDS011;43467;50.890;5.982;2023-03-14T03:50:00;5.05;;;1.63;;
36233;SDS011;43467;50.890;5.982;2023-03-14T03:52:26;5.32;;;1.40;;
36233;SDS011;43467;50.890;5.982;2023-03-14T03:54:51;4.28;;;1.27;;
36233;SDS011;43467;50.890;5.982;2023-03-14T03:57:17;4.43;;;1.25;;
36233;SDS011;43467;50.890;5.982;2023-03-14T03:59:42;4.15;;;1.38;;
36233;SDS011;43467;50.890;5.982;2023-03-14T04:02:07;2.00;;;0.88;;
36233;SDS011;43467;50.890;5.982;2023-03-14T04:04:33;7.55;;;1.20;;
36233;SDS011;43467;50.890;5.982;2023-03-14T04:06:58;2.85;;;0.98;;
36233;SDS011;43467;50.890;5.982;2023-03-14T04:09:24;3.00;;;0.77;;
36233;SDS011;43467;50.890;5.982;2023-03-14T04:11:49;4.07;;;0.93;;
36233;SDS011;43467;50.890;5.982;2023-03-14T04:14:15;2.72;;;0.98;;
36233;SDS011;43467;50.890;5.982;2023-03-14T04:16:40;5.90;;;1.35;;
36233;SDS011;43467;50.890;5.982;2023-03-14T04:19:06;2.28;;;0.80;;
36233;SDS011;43467;50.890;5.982;2023-03-14T04:21:31;1.90;;;0.70;;
36233;SDS011;43467;50.890;5.982;2023-03-14T04:23:57;3.47;;;0.95;;
36233;SDS011;43467;50.890;5.982;2023-03-14T04:26:22;4.97;;;0.80;;
36233;SDS011;43467;50.890;5.982;2023-03-14T04:28:48;2.00;;;0.70;;
36233;SDS011;43467;50.890;5.982;2023-03-14T04:31:14;1.75;;;0.60;;
36233;SDS011;43467;50.890;5.982;2023-03-14T04:33:42;2.97;;;0.82;;
36233;SDS011;43467;50.890;5.982;2023-03-14T04:36:08;1.42;;;0.75;;
36233;SDS011;43467;50.890;5.982;2023-03-14T04:38:34;2.28;;;1.08;;
36233;SDS011;43467;50.890;5.982;2023-03-14T04:40:59;2.22;;;0.50;;
36233;SDS011;43467;50.890;5.982;2023-03-14T04:43:25;2.75;;;0.63;;
36233;SDS011;43467;50.890;5.982;2023-03-14T04:45:55;1.10;;;0.50;;
36233;SDS011;43467;50.890;5.982;2023-03-14T04:48:21;1.27;;;0.57;;
36233;SDS011;43467;50.890;5.982;2023-03-14T04:50:47;0.70;;;0.60;;
36233;SDS011;43467;50.890;5.982;2023-03-14T04:53:13;1.38;;;0.60;;
36233;SDS011;43467;50.890;5.982;2023-03-14T04:55:39;1.30;;;0.57;;
36233;SDS011;43467;50.890;5.982;2023-03-14T04:58:05;1.55;;;0.60;;
36233;SDS011;43467;50.890;5.982;2023-03-14T05:00:30;0.90;;;0.65;;
36233;SDS011;43467;50.890;5.982;2023-03-14T05:02:56;1.33;;;0.52;;
36233;SDS011;43467;50.890;5.982;2023-03-14T05:05:21;1.20;;;0.40;;
36233;SDS011;43467;50.890;5.982;2023-03-14T05:07:47;1.85;;;0.40;;
36233;SDS011;43467;50.890;5.982;2023-03-14T05:10:13;0.75;;;0.45;;
36233;SDS011;43467;50.890;5.982;2023-03-14T05:12:38;2.45;;;0.75;;
36233;SDS011;43467;50.890;5.982;2023-03-14T05:15:03;0.75;;;0.43;;
36233;SDS011;43467;50.890;5.982;2023-03-14T05:17:30;0.77;;;0.50;;
36233;SDS011;43467;50.890;5.982;2023-03-14T05:19:57;1.08;;;0.40;;
36233;SDS011;43467;50.890;5.982;2023-03-14T05:22:22;0.70;;;0.45;;
36233;SDS011;43467;50.890;5.982;2023-03-14T05:24:48;1.23;;;0.50;;
36233;SDS011;43467;50.890;5.982;2023-03-14T05:27:13;0.80;;;0.50;;
36233;SDS011;43467;50.890;5.982;2023-03-14T05:29:39;1.35;;;0.50;;
36233;SDS011;43467;50.890;5.982;2023-03-14T05:32:04;1.20;;;0.50;;
36233;SDS011;43467;50.890;5.982;2023-03-14T05:34:29;0.40;;;0.40;;
36233;SDS011;43467;50.890;5.982;2023-03-14T05:36:55;1.13;;;0.47;;
36233;SDS011;43467;50.890;5.982;2023-03-14T05:39:21;0.40;;;0.40;;
36233;SDS011;43467;50.890;5.982;2023-03-14T05:41:47;1.48;;;0.50;;
36233;SDS011;43467;50.890;5.982;2023-03-14T05:44:12;1.05;;;0.40;;
36233;SDS011;43467;50.890;5.982;2023-03-14T05:46:37;0.80;;;0.50;;
36233;SDS011;43467;50.890;5.982;2023-03-14T05:49:03;0.60;;;0.30;;
36233;SDS011;43467;50.890;5.982;2023-03-14T05:51:28;0.30;;;0.30;;
36233;SDS011;43467;50.890;5.982;2023-03-14T05:53:53;0.40;;;0.40;;
36233;SDS011;43467;50.890;5.982;2023-03-14T05:59:20;6.68;;;0.85;;
36233;SDS011;43467;50.890;5.982;2023-03-14T06:01:45;0.63;;;0.57;;
36233;SDS011;43467;50.890;5.982;2023-03-14T06:04:11;0.75;;;0.60;;
36233;SDS011;43467;50.890;5.982;2023-03-14T06:06:36;1.92;;;0.60;;
36233;SDS011;43467;50.890;5.982;2023-03-14T06:09:02;0.77;;;0.63;;
36233;SDS011;43467;50.890;5.982;2023-03-14T06:11:27;1.20;;;0.43;;
36233;SDS011;43467;50.890;5.982;2023-03-14T06:13:52;1.00;;;0.50;;
36233;SDS011;43467;50.890;5.982;2023-03-14T06:16:18;1.23;;;0.50;;
36233;SDS011;43467;50.890;5.982;2023-03-14T06:18:43;0.30;;;0.30;;
36233;SDS011;43467;50.890;5.982;2023-03-14T06:21:11;1.05;;;0.40;;
36233;SDS011;43467;50.890;5.982;2023-03-14T06:23:36;0.65;;;0.47;;
36233;SDS011;43467;50.890;5.982;2023-03-14T06:26:02;0.40;;;0.40;;
36233;SDS011;43467;50.890;5.982;2023-03-14T06:28:27;0.47;;;0.40;;
36233;SDS011;43467;50.890;5.982;2023-03-14T06:30:53;1.50;;;0.57;;
36233;SDS011;43467;50.890;5.982;2023-03-14T06:33:18;2.13;;;0.70;;
36233;SDS011;43467;50.890;5.982;2023-03-14T06:35:44;0.52;;;0.52;;
36233;SDS011;43467;50.890;5.982;2023-03-14T06:38:09;1.45;;;0.60;;
36233;SDS011;43467;50.890;5.982;2023-03-14T06:40:35;1.55;;;0.73;;
36233;SDS011;43467;50.890;5.982;2023-03-14T06:43:00;0.55;;;0.40;;
36233;SDS011;43467;50.890;5.982;2023-03-14T06:45:25;0.90;;;0.60;;
36233;SDS011;43467;50.890;5.982;2023-03-14T06:47:51;0.93;;;0.60;;
36233;SDS011;43467;50.890;5.982;2023-03-14T06:50:16;1.35;;;0.70;;
36233;SDS011;43467;50.890;5.982;2023-03-14T06:52:42;0.80;;;0.60;;
36233;SDS011;43467;50.890;5.982;2023-03-14T06:55:13;0.50;;;0.50;;
36233;SDS011;43467;50.890;5.982;2023-03-14T06:57:41;0.63;;;0.60;;
36233;SDS011;43467;50.890;5.982;2023-03-14T07:00:09;1.65;;;0.70;;
36233;SDS011;43467;50.890;5.982;2023-03-14T07:02:35;0.77;;;0.60;;
36233;SDS011;43467;50.890;5.982;2023-03-14T07:05:01;1.85;;;0.93;;
36233;SDS011;43467;50.890;5.982;2023-03-14T07:07:26;1.63;;;0.80;;
36233;SDS011;43467;50.890;5.982;2023-03-14T07:09:52;0.95;;;0.85;;
36233;SDS011;43467;50.890;5.982;2023-03-14T07:12:18;1.58;;;0.82;;
36233;SDS011;43467;50.890;5.982;2023-03-14T07:14:43;1.55;;;0.88;;
36233;SDS011;43467;50.890;5.982;2023-03-14T07:17:09;1.52;;;0.65;;
36233;SDS011;43467;50.890;5.982;2023-03-14T07:19:34;2.67;;;1.02;;
36233;SDS011;43467;50.890;5.982;2023-03-14T07:21:59;0.85;;;0.65;;
36233;SDS011;43467;50.890;5.982;2023-03-14T07:24:25;0.93;;;0.70;;
36233;SDS011;43467;50.890;5.982;2023-03-14T07:26:50;1.00;;;0.70;;
36233;SDS011;43467;50.890;5.982;2023-03-14T07:29:16;4.90;;;0.80;;
36233;SDS011;43467;50.890;5.982;2023-03-14T07:31:41;2.08;;;0.98;;
36233;SDS011;43467;50.890;5.982;2023-03-14T07:34:06;1.13;;;0.90;;
36233;SDS011;43467;50.890;5.982;2023-03-14T07:36:32;1.40;;;0.82;;
36233;SDS011;43467;50.890;5.982;2023-03-14T07:38:57;1.60;;;0.93;;
36233;SDS011;43467;50.890;5.982;2023-03-14T07:41:23;2.65;;;2.00;;
36233;SDS011;43467;50.890;5.982;2023-03-14T07:43:48;4.68;;;2.75;;
36233;SDS011;43467;50.890;5.982;2023-03-14T07:46:14;4.03;;;1.02;;
36233;SDS011;43467;50.890;5.982;2023-03-14T07:48:40;1.60;;;1.17;;
36233;SDS011;43467;50.890;5.982;2023-03-14T07:51:06;1.92;;;1.38;;
36233;SDS011;43467;50.890;5.982;2023-03-14T07:53:31;2.42;;;1.38;;
36233;SDS011;43467;50.890;5.982;2023-03-14T07:55:56;1.65;;;1.10;;
36233;SDS011;43467;50.890;5.982;2023-03-14T07:58:22;2.17;;;1.10;;
36233;SDS011;43467;50.890;5.982;2023-03-14T08:00:48;1.92;;;1.38;;
36233;SDS011;43467;50.890;5.982;2023-03-14T08:03:14;4.13;;;1.95;;
36233;SDS011;43467;50.890;5.982;2023-03-14T08:05:39;1.58;;;1.30;;
36233;SDS011;43467;50.890;5.982;2023-03-14T08:08:05;1.35;;;1.10;;
36233;SDS011;43467;50.890;5.982;2023-03-14T08:10:31;1.55;;;1.20;;
36233;SDS011;43467;50.890;5.982;2023-03-14T08:12:57;1.40;;;0.80;;
36233;SDS011;43467;50.890;5.982;2023-03-14T08:15:24;1.73;;;0.98;;
36233;SDS011;43467;50.890;5.982;2023-03-14T08:17:50;2.47;;;1.00;;
36233;SDS011;43467;50.890;5.982;2023-03-14T08:20:19;2.05;;;0.95;;
36233;SDS011;43467;50.890;5.982;2023-03-14T08:22:45;1.48;;;0.73;;
36233;SDS011;43467;50.890;5.982;2023-03-14T08:25:11;1.13;;;0.82;;
36233;SDS011;43467;50.890;5.982;2023-03-14T08:27:37;2.92;;;1.00;;
36233;SDS011;43467;50.890;5.982;2023-03-14T08:30:04;0.80;;;0.80;;
36233;SDS011;43467;50.890;5.982;2023-03-14T08:32:31;1.98;;;0.93;;
36233;SDS011;43467;50.890;5.982;2023-03-14T08:34:57;1.30;;;0.80;;
36233;SDS011;43467;50.890;5.982;2023-03-14T08:37:22;0.95;;;0.70;;
36233;SDS011;43467;50.890;5.982;2023-03-14T08:39:49;3.15;;;0.95;;
36233;SDS011;43467;50.890;5.982;2023-03-14T08:42:14;1.77;;;1.10;;
36233;SDS011;43467;50.890;5.982;2023-03-14T08:44:40;1.13;;;0.60;;
36233;SDS011;43467;50.890;5.982;2023-03-14T08:47:05;0.57;;;0.50;;
36233;SDS011;43467;50.890;5.982;2023-03-14T08:49:30;1.27;;;0.60;;
36233;SDS011;43467;50.890;5.982;2023-03-14T08:51:56;0.70;;;0.47;;
36233;SDS011;43467;50.890;5.982;2023-03-14T08:54:21;0.52;;;0.50;;
36233;SDS011;43467;50.890;5.982;2023-03-14T08:56:47;1.27;;;1.05;;
36233;SDS011;43467;50.890;5.982;2023-03-14T08:59:12;2.25;;;0.70;;
36233;SDS011;43467;50.890;5.982;2023-03-14T09:01:37;0.70;;;0.50;;
36233;SDS011;43467;50.890;5.982;2023-03-14T09:04:03;1.10;;;0.70;;
36233;SDS011;43467;50.890;5.982;2023-03-14T09:06:28;0.80;;;0.80;;
36233;SDS011;43467;50.890;5.982;2023-03-14T09:08:54;0.60;;;0.60;;
36233;SDS011;43467;50.890;5.982;2023-03-14T09:11:19;2.50;;;1.05;;
36233;SDS011;43467;50.890;5.982;2023-03-14T09:13:45;1.60;;;0.70;;
36233;SDS011;43467;50.890;5.982;2023-03-14T09:16:10;1.65;;;0.80;;
36233;SDS011;43467;50.890;5.982;2023-03-14T09:18:35;1.30;;;1.00;;
36233;SDS011;43467;50.890;5.982;2023-03-14T09:21:01;1.88;;;0.80;;
36233;SDS011;43467;50.890;5.982;2023-03-14T09:23:27;4.57;;;0.88;;
36233;SDS011;43467;50.890;5.982;2023-03-14T09:25:56;2.92;;;1.75;;
36233;SDS011;43467;50.890;5.982;2023-03-14T09:28:22;1.38;;;0.95;;
36233;SDS011;43467;50.890;5.982;2023-03-14T09:30:48;2.30;;;0.73;;
36233;SDS011;43467;50.890;5.982;2023-03-14T09:33:14;1.85;;;0.80;;
36233;SDS011;43467;50.890;5.982;2023-03-14T09:35:40;1.23;;;0.80;;
36233;SDS011;43467;50.890;5.982;2023-03-14T09:38:05;2.05;;;0.95;;
36233;SDS011;43467;50.890;5.982;2023-03-14T09:40:32;1.70;;;1.02;;
36233;SDS011;43467;50.890;5.982;2023-03-14T09:43:00;5.80;;;1.17;;
36233;SDS011;43467;50.890;5.982;2023-03-14T09:45:36;2.67;;;1.17;;
36233;SDS011;43467;50.890;5.982;2023-03-14T09:48:05;1.35;;;1.05;;
36233;SDS011;43467;50.890;5.982;2023-03-14T09:50:40;3.13;;;1.40;;
36233;SDS011;43467;50.890;5.982;2023-03-14T09:53:16;1.77;;;1.25;;
36233;SDS011;43467;50.890;5.982;2023-03-14T09:55:47;1.65;;;1.30;;
36233;SDS011;43467;50.890;5.982;2023-03-14T09:58:19;2.30;;;1.50;;
36233;SDS011;43467;50.890;5.982;2023-03-14T10:00:46;2.08;;;1.45;;
36233;SDS011;43467;50.890;5.982;2023-03-14T10:05:37;1.77;;;1.55;;
36233;SDS011;43467;50.890;5.982;2023-03-14T10:08:04;3.53;;;1.80;;
36233;SDS011;43467;50.890;5.982;2023-03-14T10:10:29;4.55;;;2.30;;
36233;SDS011;43467;50.890;5.982;2023-03-14T10:12:59;1.55;;;1.33;;
36233;SDS011;43467;50.890;5.982;2023-03-14T10:15:40;3.83;;;1.65;;
36233;SDS011;43467;50.890;5.982;2023-03-14T10:18:10;3.70;;;1.40;;
36233;SDS011;43467;50.890;5.982;2023-03-14T10:20:41;3.38;;;2.20;;
36233;SDS011;43467;50.890;5.982;2023-03-14T10:25:38;3.55;;;1.90;;
36233;SDS011;43467;50.890;5.982;2023-03-14T10:28:05;3.10;;;1.92;;
36233;SDS011;43467;50.890;5.982;2023-03-14T10:30:47;5.18;;;2.50;;
36233;SDS011;43467;50.890;5.982;2023-03-14T10:33:32;3.00;;;1.95;;
36233;SDS011;43467;50.890;5.982;2023-03-14T10:38:48;3.38;;;2.08;;
36233;SDS011;43467;50.890;5.982;2023-03-14T10:41:15;4.93;;;2.50;;
36233;SDS011;43467;50.890;5.982;2023-03-14T10:43:53;2.90;;;2.55;;
36233;SDS011;43467;50.890;5.982;2023-03-14T10:46:21;3.22;;;2.38;;
36233;SDS011;43467;50.890;5.982;2023-03-14T10:48:49;2.25;;;1.90;;
36233;SDS011;43467;50.890;5.982;2023-03-14T10:56:12;3.55;;;1.35;;
36233;SDS011;43467;50.890;5.982;2023-03-14T10:58:48;3.22;;;1.15;;
36233;SDS011;43467;50.890;5.982;2023-03-14T11:04:25;2.97;;;1.10;;
36233;SDS011;43467;50.890;5.982;2023-03-14T11:07:02;3.00;;;1.50;;
36233;SDS011;43467;50.890;5.982;2023-03-14T11:15:16;3.92;;;1.98;;
36233;SDS011;43467;50.890;5.982;2023-03-14T11:20:38;7.45;;;2.40;;
36233;SDS011;43467;50.890;5.982;2023-03-14T11:23:20;2.45;;;1.27;;
36233;SDS011;43467;50.890;5.982;2023-03-14T11:28:50;3.65;;;1.30;;
36233;SDS011;43467;50.890;5.982;2023-03-14T11:39:24;3.47;;;1.70;;
36233;SDS011;43467;50.890;5.982;2023-03-14T11:41:54;3.40;;;1.75;;
36233;SDS011;43467;50.890;5.982;2023-03-14T11:44:30;2.17;;;1.10;;
36233;SDS011;43467;50.890;5.982;2023-03-14T11:47:05;2.60;;;1.30;;
36233;SDS011;43467;50.890;5.982;2023-03-14T11:49:38;1.60;;;1.10;;
36233;SDS011;43467;50.890;5.982;2023-03-14T11:57:40;3.50;;;1.83;;
36233;SDS011;43467;50.890;5.982;2023-03-14T12:02:43;1.98;;;1.20;;
36233;SDS011;43467;50.890;5.982;2023-03-14T12:10:54;2.60;;;1.20;;
36233;SDS011;43467;50.890;5.982;2023-03-14T12:13:24;3.28;;;1.67;;
36233;SDS011;43467;50.890;5.982;2023-03-14T12:15:55;4.53;;;1.63;;
36233;SDS011;43467;50.890;5.982;2023-03-14T12:20:58;6.75;;;1.70;;
36233;SDS011;43467;50.890;5.982;2023-03-14T12:23:26;4.82;;;2.13;;
36233;SDS011;43467;50.890;5.982;2023-03-14T12:28:37;6.32;;;1.83;;
36233;SDS011;43467;50.890;5.982;2023-03-14T12:46:56;8.13;;;1.75;;
36233;SDS011;43467;50.890;5.982;2023-03-14T12:49:29;9.25;;;2.15;;
36233;SDS011;43467;50.890;5.982;2023-03-14T12:51:59;15.43;;;2.13;;
36233;SDS011;43467;50.890;5.982;2023-03-14T12:59:58;15.90;;;3.10;;
36233;SDS011;43467;50.890;5.982;2023-03-14T13:02:26;8.50;;;2.20;;
36233;SDS011;43467;50.890;5.982;2023-03-14T13:12:37;9.13;;;2.17;;
36233;SDS011;43467;50.890;5.982;2023-03-14T13:15:27;7.57;;;2.00;;
36233;SDS011;43467;50.890;5.982;2023-03-14T13:18:08;8.65;;;2.55;;
36233;SDS011;43467;50.890;5.982;2023-03-14T13:20:41;9.90;;;2.43;;
36233;SDS011;43467;50.890;5.982;2023-03-14T13:23:27;10.80;;;2.85;;
36233;SDS011;43467;50.890;5.982;2023-03-14T13:25:54;13.63;;;2.85;;
36233;SDS011;43467;50.890;5.982;2023-03-14T13:28:21;16.63;;;3.22;;
36233;SDS011;43467;50.890;5.982;2023-03-14T13:30:47;20.52;;;4.18;;
36233;SDS011;43467;50.890;5.982;2023-03-14T13:33:16;14.68;;;3.55;;
36233;SDS011;43467;50.890;5.982;2023-03-14T13:35:44;15.52;;;2.53;;
36233;SDS011;43467;50.890;5.982;2023-03-14T13:38:16;11.68;;;2.88;;
36233;SDS011;43467;50.890;5.982;2023-03-14T13:40:45;13.20;;;2.83;;
36233;SDS011;43467;50.890;5.982;2023-03-14T13:45:53;12.60;;;2.80;;
36233;SDS011;43467;50.890;5.982;2023-03-14T13:48:21;12.00;;;2.60;;
36233;SDS011;43467;50.890;5.982;2023-03-14T13:50:51;18.65;;;3.67;;
36233;SDS011;43467;50.890;5.982;2023-03-14T13:53:18;17.15;;;3.28;;
36233;SDS011;43467;50.890;5.982;2023-03-14T13:55:44;18.55;;;4.10;;
36233;SDS011;43467;50.890;5.982;2023-03-14T13:58:11;15.80;;;3.83;;
36233;SDS011;43467;50.890;5.982;2023-03-14T14:00:45;15.98;;;4.68;;
36233;SDS011;43467;50.890;5.982;2023-03-14T14:03:19;16.25;;;3.53;;
36233;SDS011;43467;50.890;5.982;2023-03-14T14:05:45;21.33;;;4.15;;
36233;SDS011;43467;50.890;5.982;2023-03-14T14:08:11;16.23;;;4.38;;
36233;SDS011;43467;50.890;5.982;2023-03-14T14:10:37;14.88;;;3.55;;
36233;SDS011;43467;50.890;5.982;2023-03-14T14:13:03;14.57;;;3.63;;
36233;SDS011;43467;50.890;5.982;2023-03-14T14:15:36;19.33;;;4.50;;
36233;SDS011;43467;50.890;5.982;2023-03-14T14:18:10;17.92;;;3.58;;
36233;SDS011;43467;50.890;5.982;2023-03-14T14:20:40;12.32;;;5.32;;
36233;SDS011;43467;50.890;5.982;2023-03-14T14:23:15;25.00;;;5.22;;
36233;SDS011;43467;50.890;5.982;2023-03-14T14:25:50;17.77;;;3.83;;
36233;SDS011;43467;50.890;5.982;2023-03-14T14:28:31;17.63;;;4.10;;
36233;SDS011;43467;50.890;5.982;2023-03-14T14:36:57;21.92;;;4.10;;
36233;SDS011;43467;50.890;5.982;2023-03-14T14:39:19;14.05;;;3.60;;
36233;SDS011;43467;50.890;5.982;2023-03-14T14:41:49;17.08;;;3.83;;
36233;SDS011;43467;50.890;5.982;2023-03-14T14:44:21;20.75;;;4.30;;
36233;SDS011;43467;50.890;5.982;2023-03-14T14:46:55;20.60;;;4.45;;
36233;SDS011;43467;50.890;5.982;2023-03-14T14:49:22;24.15;;;4.15;;
36233;SDS011;43467;50.890;5.982;2023-03-14T14:52:44;14.48;;;3.78;;
36233;SDS011;43467;50.890;5.982;2023-03-14T14:54:47;17.10;;;4.13;;
36233;SDS011;43467;50.890;5.982;2023-03-14T14:57:26;23.55;;;4.82;;
36233;SDS011;43467;50.890;5.982;2023-03-14T15:00:06;15.90;;;3.45;;
36233;SDS011;43467;50.890;5.982;2023-03-14T15:02:39;30.33;;;4.65;;
36233;SDS011;43467;50.890;5.982;2023-03-14T15:05:17;15.45;;;4.03;;
36233;SDS011;43467;50.890;5.982;2023-03-14T15:07:44;19.70;;;4.78;;
36233;SDS011;43467;50.890;5.982;2023-03-14T15:10:11;16.27;;;3.83;;
36233;SDS011;43467;50.890;5.982;2023-03-14T15:12:39;14.00;;;3.78;;
36233;SDS011;43467;50.890;5.982;2023-03-14T15:15:05;18.33;;;3.70;;
36233;SDS011;43467;50.890;5.982;2023-03-14T15:17:31;14.15;;;4.10;;
36233;SDS011;43467;50.890;5.982;2023-03-14T15:19:57;19.80;;;4.07;;
36233;SDS011;43467;50.890;5.982;2023-03-14T15:22:23;19.13;;;4.10;;
36233;SDS011;43467;50.890;5.982;2023-03-14T15:24:49;15.68;;;4.88;;
36233;SDS011;43467;50.890;5.982;2023-03-14T15:27:15;15.95;;;3.20;;
36233;SDS011;43467;50.890;5.982;2023-03-14T15:29:42;13.45;;;3.47;;
36233;SDS011;43467;50.890;5.982;2023-03-14T15:32:13;16.77;;;3.63;;
36233;SDS011;43467;50.890;5.982;2023-03-14T15:34:40;17.08;;;4.40;;
36233;SDS011;43467;50.890;5.982;2023-03-14T15:37:13;14.63;;;4.25;;
36233;SDS011;43467;50.890;5.982;2023-03-14T15:39:43;13.48;;;3.63;;
36233;SDS011;43467;50.890;5.982;2023-03-14T15:42:09;10.05;;;4.28;;
36233;SDS011;43467;50.890;5.982;2023-03-14T15:44:34;17.52;;;4.28;;
36233;SDS011;43467;50.890;5.982;2023-03-14T15:47:00;11.15;;;4.60;;
36233;SDS011;43467;50.890;5.982;2023-03-14T15:49:26;12.07;;;4.30;;
36233;SDS011;43467;50.890;5.982;2023-03-14T15:51:52;19.65;;;5.63;;
36233;SDS011;43467;50.890;5.982;2023-03-14T15:54:17;13.90;;;4.43;;
36233;SDS011;43467;50.890;5.982;2023-03-14T15:56:43;14.25;;;4.60;;
36233;SDS011;43467;50.890;5.982;2023-03-14T15:59:08;20.02;;;4.88;;
36233;SDS011;43467;50.890;5.982;2023-03-14T16:01:33;13.32;;;4.40;;
36233;SDS011;43467;50.890;5.982;2023-03-14T16:03:59;14.35;;;4.68;;
36233;SDS011;43467;50.890;5.982;2023-03-14T16:06:24;13.52;;;4.60;;
36233;SDS011;43467;50.890;5.982;2023-03-14T16:08:50;8.38;;;3.03;;
36233;SDS011;43467;50.890;5.982;2023-03-14T16:11:16;5.45;;;1.77;;
36233;SDS011;43467;50.890;5.982;2023-03-14T16:13:42;6.20;;;1.60;;
36233;SDS011;43467;50.890;5.982;2023-03-14T16:16:09;4.22;;;1.20;;
36233;SDS011;43467;50.890;5.982;2023-03-14T16:18:36;3.83;;;1.42;;
36233;SDS011;43467;50.890;5.982;2023-03-14T16:21:06;5.38;;;1.98;;
36233;SDS011;43467;50.890;5.982;2023-03-14T16:23:42;7.22;;;1.80;;
36233;SDS011;43467;50.890;5.982;2023-03-14T16:26:11;9.02;;;1.80;;
36233;SDS011;43467;50.890;5.982;2023-03-14T16:28:40;6.07;;;1.98;;
36233;SDS011;43467;50.890;5.982;2023-03-14T16:31:07;5.60;;;1.60;;
36233;SDS011;43467;50.890;5.982;2023-03-14T16:33:35;3.88;;;1.38;;
36233;SDS011;43467;50.890;5.982;2023-03-14T16:36:02;7.32;;;1.48;;
36233;SDS011;43467;50.890;5.982;2023-03-14T16:41:03;6.30;;;1.70;;
36233;SDS011;43467;50.890;5.982;2023-03-14T16:43:32;4.28;;;1.13;;